sensor_id;sensor_type;location;lat;lon;timestamp;temperature;humidity
21950;DHT22;11139;51.284;7.226;2023-02-21T00:02:38;7.60;99.90
21950;DHT22;11139;51.284;7.226;2023-02-21T00:05:22;7.60;99.90
21950;DHT22;11139;51.284;7.226;2023-02-21T00:08:06;7.60;99.90
21950;DHT22;11139;51.284;7.226;2023-02-21T00:10:51;7.60;99.90
21950;DHT22;11139;51.284;7.226;2023-02-21T00:13:36;7.60;99.90
21950;DHT22;11139;51.284;7.226;2023-02-21T00:16:20;7.60;99.90
21950;DHT22;11139;51.284;7.226;2023-02-21T00:19:04;7.60;99.90
21950;DHT22;11139;51.284;7.226;2023-02-21T00:21:49;7.60;99.90
21950;DHT22;11139;51.284;7.226;2023-02-21T00:24:33;7.60;99.90
21950;DHT22;11139;51.284;7.226;2023-02-21T00:27:17;7.60;99.90
21950;DHT22;11139;51.284;7.226;2023-02-21T00:30:02;7.70;99.90
21950;DHT22;11139;51.284;7.226;2023-02-21T00:32:46;7.60;99.90
21950;DHT22;11139;51.284;7.226;2023-02-21T00:35:30;7.60;99.90
21950;DHT22;11139;51.284;7.226;2023-02-21T00:38:15;7.60;99.90
21950;DHT22;11139;51.284;7.226;2023-02-21T00:40:59;7.60;99.90
21950;DHT22;11139;51.284;7.226;2023-02-21T00:43:43;7.60;99.90
21950;DHT22;11139;51.284;7.226;2023-02-21T00:46:28;7.60;99.90
21950;DHT22;11139;51.284;7.226;2023-02-21T00:49:12;7.60;99.90
21950;DHT22;11139;51.284;7.226;2023-02-21T00:51:58;7.60;99.90
21950;DHT22;11139;51.284;7.226;2023-02-21T00:54:42;7.60;99.90
21950;DHT22;11139;51.284;7.226;2023-02-21T00:57:26;7.60;99.90
21950;DHT22;11139;51.284;7.226;2023-02-21T01:00:15;7.60;99.90
21950;DHT22;11139;51.284;7.226;2023-02-21T01:02:59;7.60;99.90
21950;DHT22;11139;51.284;7.226;2023-02-21T01:05:44;7.60;99.90
21950;DHT22;11139;51.284;7.226;2023-02-21T01:08:28;7.60;99.90
21950;DHT22;11139;51.284;7.226;2023-02-21T01:11:21;7.60;99.90
21950;DHT22;11139;51.284;7.226;2023-02-21T01:14:06;7.60;99.90
21950;DHT22;11139;51.284;7.226;2023-02-21T01:16:51;7.60;99.90
21950;DHT22;11139;51.284;7.226;2023-02-21T01:19:35;7.60;99.90
21950;DHT22;11139;51.284;7.226;2023-02-21T01:22:19;7.60;99.90
21950;DHT22;11139;51.284;7.226;2023-02-21T01:25:04;7.60;99.90
21950;DHT22;11139;51.284;7.226;2023-02-21T01:27:48;7.60;99.90
21950;DHT22;11139;51.284;7.226;2023-02-21T01:30:32;7.60;99.90
21950;DHT22;11139;51.284;7.226;2023-02-21T01:33:17;7.60;99.90
21950;DHT22;11139;51.284;7.226;2023-02-21T01:36:03;7.60;99.90
21950;DHT22;11139;51.284;7.226;2023-02-21T01:38:47;7.60;99.90
21950;DHT22;11139;51.284;7.226;2023-02-21T01:41:31;7.60;99.90
21950;DHT22;11139;51.284;7.226;2023-02-21T01:44:30;7.60;99.90
21950;DHT22;11139;51.284;7.226;2023-02-21T01:47:14;7.60;99.90
21950;DHT22;11139;51.284;7.226;2023-02-21T01:49:59;7.60;99.90
21950;DHT22;11139;51.284;7.226;2023-02-21T01:52:45;7.60;99.90
21950;DHT22;11139;51.284;7.226;2023-02-21T01:55:29;7.60;99.90
21950;DHT22;11139;51.284;7.226;2023-02-21T01:58:15;7.60;99.90
21950;DHT22;11139;51.284;7.226;2023-02-21T02:00:59;7.60;99.90
21950;DHT22;11139;51.284;7.226;2023-02-21T02:03:44;7.60;99.90
21950;DHT22;11139;51.284;7.226;2023-02-21T02:06:28;7.60;99.90
21950;DHT22;11139;51.284;7.226;2023-02-21T02:09:13;7.60;99.90
21950;DHT22;11139;51.284;7.226;2023-02-21T02:12:09;7.60;99.90
21950;DHT22;11139;51.284;7.226;2023-02-21T02:35:53;7.60;99.90
21950;DHT22;11139;51.284;7.226;2023-02-21T02:38:22;7.60;99.90
21950;DHT22;11139;51.284;7.226;2023-02-21T02:43:17;7.60;99.90
21950;DHT22;11139;51.284;7.226;2023-02-21T02:48:27;7.60;99.90
21950;DHT22;11139;51.284;7.226;2023-02-21T02:50:55;7.60;99.90
21950;DHT22;11139;51.284;7.226;2023-02-21T02:53:23;7.60;99.90
21950;DHT22;11139;51.284;7.226;2023-02-21T02:55:51;7.60;99.90
21950;DHT22;11139;51.284;7.226;2023-02-21T02:58:17;7.60;99.90
21950;DHT22;11139;51.284;7.226;2023-02-21T03:00:44;7.60;99.90
21950;DHT22;11139;51.284;7.226;2023-02-21T03:10:53;7.60;99.90
21950;DHT22;11139;51.284;7.226;2023-02-21T03:13:36;7.60;99.90
21950;DHT22;11139;51.284;7.226;2023-02-21T03:18:35;7.60;99.90
21950;DHT22;11139;51.284;7.226;2023-02-21T03:21:04;7.60;99.90
21950;DHT22;11139;51.284;7.226;2023-02-21T03:23:33;7.60;99.90
21950;DHT22;11139;51.284;7.226;2023-02-21T03:26:00;7.60;99.90
21950;DHT22;11139;51.284;7.226;2023-02-21T03:28:27;7.60;99.90
21950;DHT22;11139;51.284;7.226;2023-02-21T03:30:54;7.60;99.90
21950;DHT22;11139;51.284;7.226;2023-02-21T03:33:20;7.60;99.90
21950;DHT22;11139;51.284;7.226;2023-02-21T03:35:46;7.60;99.90
21950;DHT22;11139;51.284;7.226;2023-02-21T03:38:12;7.60;99.90
21950;DHT22;11139;51.284;7.226;2023-02-21T03:40:38;7.60;99.90
21950;DHT22;11139;51.284;7.226;2023-02-21T03:43:04;7.60;99.90
21950;DHT22;11139;51.284;7.226;2023-02-21T03:45:33;7.60;99.90
21950;DHT22;11139;51.284;7.226;2023-02-21T03:47:58;7.60;99.90
21950;DHT22;11139;51.284;7.226;2023-02-21T03:50:24;7.60;99.90
21950;DHT22;11139;51.284;7.226;2023-02-21T03:52:49;7.60;99.90
21950;DHT22;11139;51.284;7.226;2023-02-21T03:55:15;7.60;99.90
21950;DHT22;11139;51.284;7.226;2023-02-21T03:57:40;7.60;99.90
21950;DHT22;11139;51.284;7.226;2023-02-21T04:00:06;7.60;99.90
21950;DHT22;11139;51.284;7.226;2023-02-21T04:02:32;7.60;99.90
21950;DHT22;11139;51.284;7.226;2023-02-21T04:04:57;7.60;99.90
21950;DHT22;11139;51.284;7.226;2023-02-21T04:07:27;7.60;99.90
21950;DHT22;11139;51.284;7.226;2023-02-21T04:09:52;7.60;99.90
21950;DHT22;11139;51.284;7.226;2023-02-21T04:12:18;7.60;99.90
21950;DHT22;11139;51.284;7.226;2023-02-21T04:14:43;7.60;99.90
21950;DHT22;11139;51.284;7.226;2023-02-21T04:17:09;7.60;99.90
21950;DHT22;11139;51.284;7.226;2023-02-21T04:19:34;7.60;99.90
21950;DHT22;11139;51.284;7.226;2023-02-21T04:22:00;7.60;99.90
21950;DHT22;11139;51.284;7.226;2023-02-21T04:24:25;7.60;99.90
21950;DHT22;11139;51.284;7.226;2023-02-21T04:26:51;7.60;99.90
21950;DHT22;11139;51.284;7.226;2023-02-21T04:29:16;7.60;99.90
21950;DHT22;11139;51.284;7.226;2023-02-21T04:31:42;7.60;99.90
21950;DHT22;11139;51.284;7.226;2023-02-21T04:34:07;7.60;99.90
21950;DHT22;11139;51.284;7.226;2023-02-21T04:36:33;7.60;99.90
21950;DHT22;11139;51.284;7.226;2023-02-21T04:38:58;7.60;99.90
21950;DHT22;11139;51.284;7.226;2023-02-21T04:41:24;7.60;99.90
21950;DHT22;11139;51.284;7.226;2023-02-21T04:43:49;7.60;99.90
21950;DHT22;11139;51.284;7.226;2023-02-21T04:46:16;7.60;99.90
21950;DHT22;11139;51.284;7.226;2023-02-21T04:48:42;7.60;99.90
21950;DHT22;11139;51.284;7.226;2023-02-21T04:51:09;7.60;99.90
21950;DHT22;11139;51.284;7.226;2023-02-21T04:53:35;7.60;99.90
21950;DHT22;11139;51.284;7.226;2023-02-21T04:56:00;7.60;99.90
21950;DHT22;11139;51.284;7.226;2023-02-21T04:58:25;7.60;99.90
21950;DHT22;11139;51.284;7.226;2023-02-21T05:00:51;7.50;99.90
21950;DHT22;11139;51.284;7.226;2023-02-21T05:03:17;7.60;99.90
21950;DHT22;11139;51.284;7.226;2023-02-21T05:05:42;7.60;99.90
21950;DHT22;11139;51.284;7.226;2023-02-21T05:08:08;7.60;99.90
21950;DHT22;11139;51.284;7.226;2023-02-21T05:10:33;7.60;99.90
21950;DHT22;11139;51.284;7.226;2023-02-21T05:12:59;7.60;99.90
21950;DHT22;11139;51.284;7.226;2023-02-21T05:15:24;7.60;99.90
21950;DHT22;11139;51.284;7.226;2023-02-21T05:17:50;7.60;99.90
21950;DHT22;11139;51.284;7.226;2023-02-21T05:20:15;7.60;99.90
21950;DHT22;11139;51.284;7.226;2023-02-21T05:22:41;7.60;99.90
21950;DHT22;11139;51.284;7.226;2023-02-21T05:25:09;7.50;99.90
21950;DHT22;11139;51.284;7.226;2023-02-21T05:27:38;7.60;99.90
21950;DHT22;11139;51.284;7.226;2023-02-21T05:30:04;7.60;99.90
21950;DHT22;11139;51.284;7.226;2023-02-21T05:32:29;7.60;99.90
21950;DHT22;11139;51.284;7.226;2023-02-21T05:34:55;7.60;99.90
21950;DHT22;11139;51.284;7.226;2023-02-21T05:37:20;7.60;99.90
21950;DHT22;11139;51.284;7.226;2023-02-21T05:39:46;7.60;99.90
21950;DHT22;11139;51.284;7.226;2023-02-21T05:42:12;7.50;99.90
21950;DHT22;11139;51.284;7.226;2023-02-21T05:44:37;7.50;99.90
21950;DHT22;11139;51.284;7.226;2023-02-21T05:47:03;7.60;99.90
21950;DHT22;11139;51.284;7.226;2023-02-21T05:49:31;7.50;99.90
21950;DHT22;11139;51.284;7.226;2023-02-21T05:51:57;7.60;99.90
21950;DHT22;11139;51.284;7.226;2023-02-21T05:54:22;7.60;99.90
21950;DHT22;11139;51.284;7.226;2023-02-21T05:56:48;7.60;99.90
21950;DHT22;11139;51.284;7.226;2023-02-21T05:59:15;7.60;99.90
21950;DHT22;11139;51.284;7.226;2023-02-21T06:01:41;7.60;99.90
21950;DHT22;11139;51.284;7.226;2023-02-21T06:04:06;7.50;99.90
21950;DHT22;11139;51.284;7.226;2023-02-21T06:06:33;7.60;99.90
21950;DHT22;11139;51.284;7.226;2023-02-21T06:08:58;7.50;99.90
21950;DHT22;11139;51.284;7.226;2023-02-21T06:11:25;7.60;99.90
21950;DHT22;11139;51.284;7.226;2023-02-21T06:13:53;7.60;99.90
21950;DHT22;11139;51.284;7.226;2023-02-21T06:16:18;7.60;99.90
21950;DHT22;11139;51.284;7.226;2023-02-21T06:18:44;7.60;99.90
21950;DHT22;11139;51.284;7.226;2023-02-21T06:21:10;7.60;99.90
21950;DHT22;11139;51.284;7.226;2023-02-21T06:23:35;7.60;99.90
21950;DHT22;11139;51.284;7.226;2023-02-21T06:26:00;7.50;99.90
21950;DHT22;11139;51.284;7.226;2023-02-21T06:28:27;7.60;99.90
21950;DHT22;11139;51.284;7.226;2023-02-21T06:30:52;7.60;99.90
21950;DHT22;11139;51.284;7.226;2023-02-21T06:33:18;7.50;99.90
21950;DHT22;11139;51.284;7.226;2023-02-21T06:35:43;7.50;99.90
21950;DHT22;11139;51.284;7.226;2023-02-21T06:38:09;7.60;99.90
21950;DHT22;11139;51.284;7.226;2023-02-21T06:40:34;7.60;99.90
21950;DHT22;11139;51.284;7.226;2023-02-21T06:42:59;7.60;99.90
21950;DHT22;11139;51.284;7.226;2023-02-21T06:45:25;7.50;99.90
21950;DHT22;11139;51.284;7.226;2023-02-21T06:47:50;7.50;99.90
21950;DHT22;11139;51.284;7.226;2023-02-21T06:50:16;7.60;99.90
21950;DHT22;11139;51.284;7.226;2023-02-21T06:52:41;7.50;99.90
21950;DHT22;11139;51.284;7.226;2023-02-21T06:55:07;7.50;99.90
21950;DHT22;11139;51.284;7.226;2023-02-21T06:57:32;7.50;99.90
21950;DHT22;11139;51.284;7.226;2023-02-21T06:59:58;7.60;99.90
21950;DHT22;11139;51.284;7.226;2023-02-21T07:02:23;7.50;99.90
21950;DHT22;11139;51.284;7.226;2023-02-21T07:04:49;7.60;99.90
21950;DHT22;11139;51.284;7.226;2023-02-21T07:07:15;7.50;99.90
21950;DHT22;11139;51.284;7.226;2023-02-21T07:09:40;7.50;99.90
21950;DHT22;11139;51.284;7.226;2023-02-21T07:12:06;7.50;99.90
21950;DHT22;11139;51.284;7.226;2023-02-21T07:14:33;7.50;99.90
21950;DHT22;11139;51.284;7.226;2023-02-21T07:16:58;7.50;99.90
21950;DHT22;11139;51.284;7.226;2023-02-21T07:19:24;7.50;99.90
21950;DHT22;11139;51.284;7.226;2023-02-21T07:21:49;7.50;99.90
21950;DHT22;11139;51.284;7.226;2023-02-21T07:24:15;7.50;99.90
21950;DHT22;11139;51.284;7.226;2023-02-21T07:26:40;7.50;99.90
21950;DHT22;11139;51.284;7.226;2023-02-21T07:29:06;7.50;99.90
21950;DHT22;11139;51.284;7.226;2023-02-21T07:31:31;7.50;99.90
21950;DHT22;11139;51.284;7.226;2023-02-21T07:33:58;7.50;99.90
21950;DHT22;11139;51.284;7.226;2023-02-21T07:36:23;7.50;99.90
21950;DHT22;11139;51.284;7.226;2023-02-21T07:38:49;7.60;99.90
21950;DHT22;11139;51.284;7.226;2023-02-21T07:41:14;7.50;99.90
21950;DHT22;11139;51.284;7.226;2023-02-21T07:43:40;7.50;99.90
21950;DHT22;11139;51.284;7.226;2023-02-21T07:46:09;7.50;99.90
21950;DHT22;11139;51.284;7.226;2023-02-21T07:48:35;7.50;99.90
21950;DHT22;11139;51.284;7.226;2023-02-21T07:51:01;7.60;99.90
21950;DHT22;11139;51.284;7.226;2023-02-21T07:53:26;7.50;99.90
21950;DHT22;11139;51.284;7.226;2023-02-21T07:55:52;7.50;99.90
21950;DHT22;11139;51.284;7.226;2023-02-21T07:58:17;7.50;99.90
21950;DHT22;11139;51.284;7.226;2023-02-21T08:00:43;7.50;99.90
21950;DHT22;11139;51.284;7.226;2023-02-21T08:03:11;7.60;99.90
21950;DHT22;11139;51.284;7.226;2023-02-21T08:05:36;7.60;99.90
21950;DHT22;11139;51.284;7.226;2023-02-21T08:08:02;7.50;99.90
21950;DHT22;11139;51.284;7.226;2023-02-21T08:10:27;7.50;99.90
21950;DHT22;11139;51.284;7.226;2023-02-21T08:12:53;7.50;99.90
21950;DHT22;11139;51.284;7.226;2023-02-21T08:15:19;7.50;99.90
21950;DHT22;11139;51.284;7.226;2023-02-21T08:17:48;7.50;99.90
21950;DHT22;11139;51.284;7.226;2023-02-21T08:20:14;7.60;99.90
21950;DHT22;11139;51.284;7.226;2023-02-21T08:22:39;7.50;99.90
21950;DHT22;11139;51.284;7.226;2023-02-21T08:25:05;7.50;99.90
21950;DHT22;11139;51.284;7.226;2023-02-21T08:27:31;7.50;99.90
21950;DHT22;11139;51.284;7.226;2023-02-21T08:29:56;7.50;99.90
21950;DHT22;11139;51.284;7.226;2023-02-21T08:32:22;7.50;99.90
21950;DHT22;11139;51.284;7.226;2023-02-21T08:34:47;7.50;99.90
21950;DHT22;11139;51.284;7.226;2023-02-21T08:37:13;7.50;99.90
21950;DHT22;11139;51.284;7.226;2023-02-21T08:39:48;7.50;99.90
21950;DHT22;11139;51.284;7.226;2023-02-21T08:42:15;7.50;99.90
21950;DHT22;11139;51.284;7.226;2023-02-21T08:44:44;7.50;99.90
21950;DHT22;11139;51.284;7.226;2023-02-21T08:47:10;7.50;99.90
21950;DHT22;11139;51.284;7.226;2023-02-21T08:49:35;7.50;99.90
21950;DHT22;11139;51.284;7.226;2023-02-21T08:52:04;7.50;99.90
21950;DHT22;11139;51.284;7.226;2023-02-21T08:54:30;7.50;99.90
21950;DHT22;11139;51.284;7.226;2023-02-21T08:56:56;7.50;99.90
21950;DHT22;11139;51.284;7.226;2023-02-21T08:59:23;7.50;99.90
21950;DHT22;11139;51.284;7.226;2023-02-21T09:01:48;7.50;99.90
21950;DHT22;11139;51.284;7.226;2023-02-21T09:04:14;7.50;99.90
21950;DHT22;11139;51.284;7.226;2023-02-21T09:06:39;7.50;99.90
21950;DHT22;11139;51.284;7.226;2023-02-21T09:09:05;7.50;99.90
21950;DHT22;11139;51.284;7.226;2023-02-21T09:11:30;7.50;99.90
21950;DHT22;11139;51.284;7.226;2023-02-21T09:13:56;7.50;99.90
21950;DHT22;11139;51.284;7.226;2023-02-21T09:16:21;7.50;99.90
21950;DHT22;11139;51.284;7.226;2023-02-21T09:18:57;7.50;99.90
21950;DHT22;11139;51.284;7.226;2023-02-21T09:21:23;7.50;99.90
21950;DHT22;11139;51.284;7.226;2023-02-21T09:23:50;7.50;99.90
21950;DHT22;11139;51.284;7.226;2023-02-21T09:26:16;7.50;99.90
21950;DHT22;11139;51.284;7.226;2023-02-21T09:28:41;7.50;99.90
21950;DHT22;11139;51.284;7.226;2023-02-21T09:31:07;7.50;99.90
21950;DHT22;11139;51.284;7.226;2023-02-21T09:33:35;7.50;99.90
21950;DHT22;11139;51.284;7.226;2023-02-21T09:36:07;7.50;99.90
21950;DHT22;11139;51.284;7.226;2023-02-21T09:38:33;7.50;99.90
21950;DHT22;11139;51.284;7.226;2023-02-21T09:40:59;7.50;99.90
21950;DHT22;11139;51.284;7.226;2023-02-21T09:43:36;7.50;99.90
21950;DHT22;11139;51.284;7.226;2023-02-21T09:46:13;7.50;99.90
21950;DHT22;11139;51.284;7.226;2023-02-21T09:48:40;7.50;99.90
21950;DHT22;11139;51.284;7.226;2023-02-21T09:51:07;7.50;99.90
21950;DHT22;11139;51.284;7.226;2023-02-21T09:53:34;7.50;99.90
21950;DHT22;11139;51.284;7.226;2023-02-21T09:56:05;7.50;99.90
21950;DHT22;11139;51.284;7.226;2023-02-21T09:58:31;7.50;99.90
21950;DHT22;11139;51.284;7.226;2023-02-21T10:01:00;7.50;99.90
21950;DHT22;11139;51.284;7.226;2023-02-21T10:11:02;7.50;99.90
21950;DHT22;11139;51.284;7.226;2023-02-21T10:13:38;7.50;99.90
21950;DHT22;11139;51.284;7.226;2023-02-21T10:16:27;7.50;99.90
21950;DHT22;11139;51.284;7.226;2023-02-21T10:18:55;7.50;99.90
21950;DHT22;11139;51.284;7.226;2023-02-21T10:21:27;7.50;99.90
21950;DHT22;11139;51.284;7.226;2023-02-21T10:23:54;7.50;99.90
21950;DHT22;11139;51.284;7.226;2023-02-21T10:26:23;7.50;99.90
21950;DHT22;11139;51.284;7.226;2023-02-21T10:28:49;7.50;99.90
21950;DHT22;11139;51.284;7.226;2023-02-21T10:31:23;7.50;99.90
21950;DHT22;11139;51.284;7.226;2023-02-21T10:33:49;7.50;99.90
21950;DHT22;11139;51.284;7.226;2023-02-21T10:36:16;7.50;99.90
21950;DHT22;11139;51.284;7.226;2023-02-21T10:38:44;7.50;99.90
21950;DHT22;11139;51.284;7.226;2023-02-21T10:41:13;7.50;99.90
21950;DHT22;11139;51.284;7.226;2023-02-21T10:43:43;7.50;99.90
21950;DHT22;11139;51.284;7.226;2023-02-21T10:48:50;7.50;99.90
21950;DHT22;11139;51.284;7.226;2023-02-21T10:51:27;7.50;99.90
21950;DHT22;11139;51.284;7.226;2023-02-21T10:53:53;7.50;99.90
21950;DHT22;11139;51.284;7.226;2023-02-21T10:56:23;7.50;99.90
21950;DHT22;11139;51.284;7.226;2023-02-21T10:59:03;7.50;99.90
21950;DHT22;11139;51.284;7.226;2023-02-21T11:01:36;7.50;99.90
21950;DHT22;11139;51.284;7.226;2023-02-21T11:04:03;7.50;99.90
21950;DHT22;11139;51.284;7.226;2023-02-21T11:08:55;7.50;99.90
21950;DHT22;11139;51.284;7.226;2023-02-21T11:11:30;7.50;99.90
21950;DHT22;11139;51.284;7.226;2023-02-21T11:14:05;7.50;99.90
21950;DHT22;11139;51.284;7.226;2023-02-21T11:16:31;7.50;99.90
21950;DHT22;11139;51.284;7.226;2023-02-21T11:19:05;7.50;99.90
21950;DHT22;11139;51.284;7.226;2023-02-21T11:21:31;7.50;99.90
21950;DHT22;11139;51.284;7.226;2023-02-21T11:24:01;7.60;99.90
21950;DHT22;11139;51.284;7.226;2023-02-21T11:26:45;7.50;99.90
21950;DHT22;11139;51.284;7.226;2023-02-21T11:29:12;7.50;99.90
21950;DHT22;11139;51.284;7.226;2023-02-21T11:31:39;7.50;99.90
21950;DHT22;11139;51.284;7.226;2023-02-21T11:34:05;7.50;99.90
21950;DHT22;11139;51.284;7.226;2023-02-21T11:36:32;7.60;99.90
21950;DHT22;11139;51.284;7.226;2023-02-21T11:39:05;7.50;99.90
21950;DHT22;11139;51.284;7.226;2023-02-21T11:43:57;7.50;99.90
21950;DHT22;11139;51.284;7.226;2023-02-21T11:46:28;7.60;99.90
21950;DHT22;11139;51.284;7.226;2023-02-21T11:51:43;7.60;99.90
21950;DHT22;11139;51.284;7.226;2023-02-21T11:54:10;7.60;99.90
21950;DHT22;11139;51.284;7.226;2023-02-21T11:56:41;7.60;99.90
21950;DHT22;11139;51.284;7.226;2023-02-21T12:06:58;7.60;99.90
21950;DHT22;11139;51.284;7.226;2023-02-21T12:09:52;7.60;99.90
21950;DHT22;11139;51.284;7.226;2023-02-21T12:15:12;7.50;99.90
21950;DHT22;11139;51.284;7.226;2023-02-21T12:25:17;7.60;99.90
21950;DHT22;11139;51.284;7.226;2023-02-21T12:43:22;7.60;99.90
21950;DHT22;11139;51.284;7.226;2023-02-21T12:50:40;7.60;99.90
21950;DHT22;11139;51.284;7.226;2023-02-21T12:53:12;7.60;99.90
21950;DHT22;11139;51.284;7.226;2023-02-21T12:56:02;7.60;99.90
21950;DHT22;11139;51.284;7.226;2023-02-21T12:58:42;7.60;99.90
21950;DHT22;11139;51.284;7.226;2023-02-21T13:01:10;7.60;99.90
21950;DHT22;11139;51.284;7.226;2023-02-21T13:11:24;7.60;99.90
21950;DHT22;11139;51.284;7.226;2023-02-21T13:13:51;7.60;99.90
21950;DHT22;11139;51.284;7.226;2023-02-21T13:16:17;7.60;99.90
21950;DHT22;11139;51.284;7.226;2023-02-21T13:18:49;7.70;99.90
21950;DHT22;11139;51.284;7.226;2023-02-21T13:23:49;7.70;99.90
21950;DHT22;11139;51.284;7.226;2023-02-21T13:28:51;7.60;99.90
21950;DHT22;11139;51.284;7.226;2023-02-21T13:31:22;7.70;99.90
21950;DHT22;11139;51.284;7.226;2023-02-21T13:33:58;7.70;99.90
21950;DHT22;11139;51.284;7.226;2023-02-21T13:39:35;7.60;99.90
21950;DHT22;11139;51.284;7.226;2023-02-21T13:41:46;7.70;99.90
21950;DHT22;11139;51.284;7.226;2023-02-21T13:44:18;7.60;99.90
21950;DHT22;11139;51.284;7.226;2023-02-21T13:51:53;7.70;99.90
21950;DHT22;11139;51.284;7.226;2023-02-21T13:54:59;7.70;99.90
21950;DHT22;11139;51.284;7.226;2023-02-21T13:57:30;7.80;99.90
21950;DHT22;11139;51.284;7.226;2023-02-21T13:59:56;7.90;99.90
21950;DHT22;11139;51.284;7.226;2023-02-21T14:02:31;8.00;99.90
21950;DHT22;11139;51.284;7.226;2023-02-21T14:05:00;8.10;99.90
21950;DHT22;11139;51.284;7.226;2023-02-21T14:07:38;8.10;99.90
21950;DHT22;11139;51.284;7.226;2023-02-21T14:10:12;8.20;99.90
21950;DHT22;11139;51.284;7.226;2023-02-21T14:12:41;8.20;99.90
21950;DHT22;11139;51.284;7.226;2023-02-21T14:15:07;8.30;99.90
21950;DHT22;11139;51.284;7.226;2023-02-21T14:17:33;8.30;99.90
21950;DHT22;11139;51.284;7.226;2023-02-21T14:20:00;8.30;99.90
21950;DHT22;11139;51.284;7.226;2023-02-21T14:22:27;8.40;99.90
21950;DHT22;11139;51.284;7.226;2023-02-21T14:27:37;8.40;99.90
21950;DHT22;11139;51.284;7.226;2023-02-21T14:32:40;8.30;99.90
21950;DHT22;11139;51.284;7.226;2023-02-21T14:35:19;8.30;99.90
21950;DHT22;11139;51.284;7.226;2023-02-21T14:37:51;8.30;99.90
21950;DHT22;11139;51.284;7.226;2023-02-21T14:40:20;8.30;99.90
21950;DHT22;11139;51.284;7.226;2023-02-21T14:58:18;8.30;99.90
21950;DHT22;11139;51.284;7.226;2023-02-21T15:01:01;8.30;99.90
21950;DHT22;11139;51.284;7.226;2023-02-21T15:03:29;8.30;99.90
21950;DHT22;11139;51.284;7.226;2023-02-21T15:06:05;8.30;99.90
21950;DHT22;11139;51.284;7.226;2023-02-21T15:08:41;8.30;99.90
21950;DHT22;11139;51.284;7.226;2023-02-21T15:11:14;8.30;99.90
21950;DHT22;11139;51.284;7.226;2023-02-21T15:13:42;8.30;99.90
21950;DHT22;11139;51.284;7.226;2023-02-21T15:16:09;8.30;99.90
21950;DHT22;11139;51.284;7.226;2023-02-21T15:18:35;8.30;99.90
21950;DHT22;11139;51.284;7.226;2023-02-21T15:23:30;8.30;99.90
21950;DHT22;11139;51.284;7.226;2023-02-21T15:25:59;8.30;99.90
21950;DHT22;11139;51.284;7.226;2023-02-21T15:30:59;8.20;99.90
21950;DHT22;11139;51.284;7.226;2023-02-21T15:33:27;8.30;99.90
21950;DHT22;11139;51.284;7.226;2023-02-21T15:36:00;8.30;99.90
21950;DHT22;11139;51.284;7.226;2023-02-21T15:38:28;8.30;99.90
21950;DHT22;11139;51.284;7.226;2023-02-21T15:40:59;8.30;99.90
21950;DHT22;11139;51.284;7.226;2023-02-21T15:45:53;8.30;99.90
21950;DHT22;11139;51.284;7.226;2023-02-21T15:48:21;8.30;99.90
21950;DHT22;11139;51.284;7.226;2023-02-21T15:50:47;8.30;99.90
21950;DHT22;11139;51.284;7.226;2023-02-21T15:53:15;8.30;99.90
21950;DHT22;11139;51.284;7.226;2023-02-21T15:55:41;8.30;99.90
21950;DHT22;11139;51.284;7.226;2023-02-21T16:00:47;8.30;99.90
21950;DHT22;11139;51.284;7.226;2023-02-21T16:05:50;8.30;99.90
21950;DHT22;11139;51.284;7.226;2023-02-21T16:08:15;8.30;99.90
21950;DHT22;11139;51.284;7.226;2023-02-21T16:10:41;8.30;99.90
21950;DHT22;11139;51.284;7.226;2023-02-21T16:13:07;8.30;99.90
21950;DHT22;11139;51.284;7.226;2023-02-21T16:15:33;8.30;99.90
21950;DHT22;11139;51.284;7.226;2023-02-21T16:18:04;8.30;99.90
21950;DHT22;11139;51.284;7.226;2023-02-21T16:28:21;8.30;99.90
21950;DHT22;11139;51.284;7.226;2023-02-21T16:30:47;8.30;99.90
21950;DHT22;11139;51.284;7.226;2023-02-21T16:33:13;8.30;99.90
21950;DHT22;11139;51.284;7.226;2023-02-21T16:35:38;8.30;99.90
21950;DHT22;11139;51.284;7.226;2023-02-21T16:38:04;8.20;99.90
21950;DHT22;11139;51.284;7.226;2023-02-21T16:40:32;8.30;99.90
21950;DHT22;11139;51.284;7.226;2023-02-21T16:42:58;8.20;99.90
21950;DHT22;11139;51.284;7.226;2023-02-21T16:45:25;8.20;99.90
21950;DHT22;11139;51.284;7.226;2023-02-21T16:47:55;8.20;99.90
21950;DHT22;11139;51.284;7.226;2023-02-21T16:50:23;8.30;99.90
21950;DHT22;11139;51.284;7.226;2023-02-21T16:52:51;8.30;99.90
21950;DHT22;11139;51.284;7.226;2023-02-21T16:55:17;8.20;99.90
21950;DHT22;11139;51.284;7.226;2023-02-21T16:57:45;8.30;99.90
21950;DHT22;11139;51.284;7.226;2023-02-21T17:00:11;8.20;99.90
21950;DHT22;11139;51.284;7.226;2023-02-21T17:02:37;8.30;99.90
21950;DHT22;11139;51.284;7.226;2023-02-21T17:05:02;8.20;99.90
21950;DHT22;11139;51.284;7.226;2023-02-21T17:07:27;8.20;99.90
21950;DHT22;11139;51.284;7.226;2023-02-21T17:09:53;8.20;99.90
21950;DHT22;11139;51.284;7.226;2023-02-21T17:12:18;8.30;99.90
21950;DHT22;11139;51.284;7.226;2023-02-21T17:14:44;8.20;99.90
21950;DHT22;11139;51.284;7.226;2023-02-21T17:17:09;8.20;99.90
21950;DHT22;11139;51.284;7.226;2023-02-21T17:19:35;8.20;99.90
21950;DHT22;11139;51.284;7.226;2023-02-21T17:22:00;8.20;99.90
21950;DHT22;11139;51.284;7.226;2023-02-21T17:24:26;8.20;99.90
21950;DHT22;11139;51.284;7.226;2023-02-21T17:26:52;8.30;99.90
21950;DHT22;11139;51.284;7.226;2023-02-21T17:29:18;8.20;99.90
21950;DHT22;11139;51.284;7.226;2023-02-21T17:31:43;8.20;99.90
21950;DHT22;11139;51.284;7.226;2023-02-21T17:34:10;8.20;99.90
21950;DHT22;11139;51.284;7.226;2023-02-21T17:36:36;8.20;99.90
21950;DHT22;11139;51.284;7.226;2023-02-21T17:39:01;8.20;99.90
21950;DHT22;11139;51.284;7.226;2023-02-21T17:41:27;8.20;99.90
21950;DHT22;11139;51.284;7.226;2023-02-21T17:43:53;8.20;99.90
21950;DHT22;11139;51.284;7.226;2023-02-21T17:46:19;8.20;99.90
21950;DHT22;11139;51.284;7.226;2023-02-21T17:48:45;8.20;99.90
21950;DHT22;11139;51.284;7.226;2023-02-21T17:51:21;8.20;99.90
21950;DHT22;11139;51.284;7.226;2023-02-21T17:53:47;8.20;99.90
21950;DHT22;11139;51.284;7.226;2023-02-21T17:56:15;8.20;99.90
21950;DHT22;11139;51.284;7.226;2023-02-21T17:58:40;8.20;99.90
21950;DHT22;11139;51.284;7.226;2023-02-21T18:01:06;8.20;99.90
21950;DHT22;11139;51.284;7.226;2023-02-21T18:03:31;8.20;99.90
21950;DHT22;11139;51.284;7.226;2023-02-21T18:05:57;8.20;99.90
21950;DHT22;11139;51.284;7.226;2023-02-21T18:08:22;8.20;99.90
21950;DHT22;11139;51.284;7.226;2023-02-21T18:10:48;8.20;99.90
21950;DHT22;11139;51.284;7.226;2023-02-21T18:13:23;8.20;99.90
21950;DHT22;11139;51.284;7.226;2023-02-21T18:15:49;8.20;99.90
21950;DHT22;11139;51.284;7.226;2023-02-21T18:18:15;8.20;99.90
21950;DHT22;11139;51.284;7.226;2023-02-21T18:20:40;8.20;99.90
21950;DHT22;11139;51.284;7.226;2023-02-21T18:23:06;8.20;99.90
21950;DHT22;11139;51.284;7.226;2023-02-21T18:25:33;8.20;99.90
21950;DHT22;11139;51.284;7.226;2023-02-21T18:27:59;8.20;99.90
21950;DHT22;11139;51.284;7.226;2023-02-21T18:30:24;8.20;99.90
21950;DHT22;11139;51.284;7.226;2023-02-21T18:32:53;8.20;99.90
21950;DHT22;11139;51.284;7.226;2023-02-21T18:35:19;8.20;99.90
21950;DHT22;11139;51.284;7.226;2023-02-21T18:37:45;8.20;99.90